createdAt,value
2022-12-29T00:02:40.510Z,63.90
2022-12-29T00:07:43.024Z,35.53
2022-12-29T00:13:04.156Z,40.97
2022-12-29T00:18:07.649Z,43.00
2022-12-29T00:23:29.307Z,25.08
2022-12-29T00:28:50.487Z,20.15
2022-12-29T00:34:11.542Z,17.00
2022-12-29T00:39:36.271Z,15.55
2022-12-29T00:44:41.016Z,16.55
2022-12-29T00:49:45.892Z,14.20
2022-12-29T00:54:49.625Z,14.97
2022-12-29T01:04:54.650Z,16.58
2022-12-29T01:10:12.314Z,13.10
2022-12-29T01:15:15.716Z,12.98
2022-12-29T01:20:18.335Z,13.45
2022-12-29T01:25:20.733Z,11.77
2022-12-29T01:30:23.190Z,11.07
2022-12-29T01:35:25.652Z,7.90
2022-12-29T01:40:29.209Z,7.90
2022-12-29T01:45:32.068Z,7.68
2022-12-29T01:50:44.291Z,6.22
2022-12-29T01:55:54.126Z,6.22
2022-12-29T02:00:57.944Z,6.03
2022-12-29T02:06:11.730Z,6.93
2022-12-29T02:11:14.473Z,10.52
2022-12-29T02:16:33.296Z,7.30
2022-12-29T02:21:52.434Z,7.07
2022-12-29T02:27:00.794Z,8.65
2022-12-29T02:32:09.596Z,7.05
2022-12-29T02:37:27.723Z,14.85
2022-12-29T02:42:30.057Z,12.30
2022-12-29T02:47:39.587Z,8.63
2022-12-29T02:52:53.230Z,4.45
2022-12-29T02:58:18.227Z,5.13
2022-12-29T03:03:40.685Z,6.10
2022-12-29T03:09:28.396Z,4.20
2022-12-29T03:14:53.731Z,4.68
2022-12-29T03:20:01.246Z,3.83
2022-12-29T03:25:11.447Z,7.15
2022-12-29T03:30:16.372Z,4.30
2022-12-29T03:35:23.820Z,4.35
2022-12-29T03:40:27.603Z,4.55
2022-12-29T03:45:29.949Z,4.65
2022-12-29T03:50:33.259Z,2.92
2022-12-29T03:55:36.089Z,6.88
2022-12-29T04:00:38.573Z,4.63
2022-12-29T04:05:41.164Z,4.45
2022-12-29T04:10:44.173Z,5.55
2022-12-29T04:15:48.212Z,5.83
2022-12-29T04:21:04.600Z,6.07
2022-12-29T04:26:10.594Z,7.40
2022-12-29T04:31:27.359Z,7.45
2022-12-29T04:36:30.513Z,6.05
2022-12-29T04:41:33.842Z,7.65
2022-12-29T04:46:37.678Z,7.70
2022-12-29T04:51:55.200Z,5.57
2022-12-29T04:56:57.800Z,4.72
2022-12-29T05:02:00.753Z,9.03
2022-12-29T05:07:03.553Z,7.07
2022-12-29T05:12:06.531Z,9.35
2022-12-29T05:17:11.002Z,5.00
2022-12-29T05:22:13.534Z,4.68
2022-12-29T05:27:17.627Z,3.97
2022-12-29T05:32:25.010Z,4.53
2022-12-29T05:37:29.274Z,5.40
2022-12-29T05:42:32.119Z,4.60
2022-12-29T05:47:49.177Z,4.60
2022-12-29T05:53:04.618Z,4.32
2022-12-29T05:58:08.132Z,3.88
2022-12-29T06:03:12.380Z,6.53
2022-12-29T06:08:15.071Z,5.20
2022-12-29T06:13:17.522Z,5.90
2022-12-29T06:18:21.883Z,5.45
2022-12-29T06:23:25.207Z,5.57
2022-12-29T06:28:27.815Z,5.72
2022-12-29T06:33:31.356Z,5.07
2022-12-29T06:38:34.189Z,6.50
2022-12-29T06:43:39.432Z,4.60
2022-12-29T06:48:55.543Z,5.20
2022-12-29T06:53:58.117Z,5.13
2022-12-29T06:59:02.190Z,4.07
2022-12-29T07:04:05.300Z,4.95
2022-12-29T07:09:08.712Z,5.30
2022-12-29T07:14:12.911Z,6.05
2022-12-29T07:19:15.618Z,6.57
2022-12-29T07:24:18.247Z,5.23
2022-12-29T07:29:21.229Z,13.77
2022-12-29T07:34:25.417Z,6.78
2022-12-29T07:39:30.447Z,8.23
2022-12-29T07:44:33.754Z,7.93
2022-12-29T07:49:58.266Z,4.07
2022-12-29T08:00:28.880Z,6.75
2022-12-29T08:05:34.953Z,9.70
2022-12-29T08:10:38.441Z,7.80
2022-12-29T08:20:55.910Z,5.28
2022-12-29T08:26:00.621Z,6.57
2022-12-29T08:31:04.212Z,5.05
2022-12-29T08:41:35.973Z,4.95
2022-12-29T08:46:41.688Z,4.63
2022-12-29T08:51:44.849Z,4.68
2022-12-29T08:56:50.513Z,6.22
2022-12-29T09:02:16.370Z,7.22
2022-12-29T09:07:21.667Z,6.95
2022-12-29T09:12:24.471Z,7.60
2022-12-29T09:18:04.597Z,9.15
2022-12-29T09:23:17.207Z,10.52
2022-12-29T09:28:21.656Z,26.30
2022-12-29T09:33:25.179Z,46.00
2022-12-29T09:38:40.255Z,23.15
2022-12-29T09:44:47.773Z,30.88
2022-12-29T09:50:06.568Z,36.47
2022-12-29T09:55:27.255Z,34.10
2022-12-29T10:01:14.218Z,30.55
2022-12-29T10:06:24.748Z,26.30
2022-12-29T10:11:40.117Z,48.97
2022-12-29T10:17:01.784Z,38.95
2022-12-29T10:22:41.364Z,58.60
2022-12-29T10:33:09.082Z,22.50
2022-12-29T10:38:26.718Z,19.52
2022-12-29T10:43:39.785Z,10.68
2022-12-29T10:48:55.045Z,13.00
2022-12-29T10:55:40.223Z,14.23
2022-12-29T11:00:34.319Z,11.10
2022-12-29T11:12:32.372Z,13.85
2022-12-29T11:18:34.617Z,9.27
2022-12-29T11:24:28.827Z,13.85
2022-12-29T11:30:03.826Z,11.38
2022-12-29T11:35:42.867Z,69.43
2022-12-29T11:40:45.663Z,46.97
2022-12-29T11:45:58.802Z,22.15
2022-12-29T11:52:53.327Z,14.98
2022-12-29T11:58:24.543Z,11.35
2022-12-29T12:04:24.917Z,10.13
2022-12-29T12:10:08.068Z,13.35
2022-12-29T12:15:56.174Z,13.38
2022-12-29T12:21:36.470Z,8.85
2022-12-29T12:26:58.369Z,4.50
2022-12-29T12:45:35.691Z,10.80
2022-12-29T13:04:58.457Z,27.83
2022-12-29T13:16:54.478Z,16.25
2022-12-29T13:22:11.303Z,17.48
2022-12-29T13:28:04.959Z,9.82
2022-12-29T13:33:34.285Z,16.88
2022-12-29T13:39:09.636Z,70.70
2022-12-29T13:45:17.587Z,156.73
2022-12-29T13:50:58.841Z,53.42
2022-12-29T13:56:25.792Z,36.70
2022-12-29T14:14:39.150Z,29.90
2022-12-29T14:19:54.609Z,24.75
2022-12-29T14:24:57.508Z,30.88
2022-12-29T14:30:00.744Z,88.47
2022-12-29T14:35:52.706Z,184.20
2022-12-29T14:41:26.292Z,164.13
2022-12-29T14:46:55.407Z,194.43
2022-12-29T14:52:18.950Z,135.82
2022-12-29T15:03:19.446Z,93.38
2022-12-29T15:08:25.936Z,88.60
2022-12-29T15:20:22.774Z,44.13
2022-12-29T15:26:06.127Z,26.35
2022-12-29T15:31:28.062Z,22.35
2022-12-29T15:43:16.190Z,47.23
2022-12-29T15:48:22.417Z,36.45
2022-12-29T15:53:40.030Z,70.18
2022-12-29T15:59:08.118Z,118.88
2022-12-29T16:04:12.095Z,189.25
2022-12-29T16:15:59.726Z,129.90
2022-12-29T16:27:33.192Z,105.43
2022-12-29T16:33:06.709Z,68.05
2022-12-29T16:38:18.521Z,53.00
2022-12-29T16:57:07.200Z,67.10
2022-12-29T17:02:53.544Z,144.43
2022-12-29T17:15:00.508Z,98.93
2022-12-29T17:26:23.367Z,53.03
2022-12-29T17:32:16.761Z,37.45
2022-12-29T17:37:25.031Z,44.75
2022-12-29T17:42:47.042Z,37.28
2022-12-29T17:47:52.448Z,37.60
2022-12-29T17:53:00.943Z,78.97
2022-12-29T17:58:43.419Z,64.00
2022-12-29T18:03:48.821Z,51.58
2022-12-29T18:08:58.423Z,59.05
2022-12-29T18:14:44.119Z,51.38
2022-12-29T18:19:47.175Z,50.63
2022-12-29T18:24:50.570Z,50.75
2022-12-29T18:30:02.316Z,47.35
2022-12-29T18:35:14.499Z,63.75
2022-12-29T18:40:40.685Z,66.45
2022-12-29T18:46:23.878Z,81.88
2022-12-29T18:52:14.402Z,128.18
2022-12-29T18:57:18.101Z,118.03
2022-12-29T19:02:31.754Z,139.60
2022-12-29T19:07:44.648Z,144.32
2022-12-29T19:19:45.469Z,103.75
2022-12-29T19:25:22.712Z,104.18
2022-12-29T19:30:37.989Z,100.82
2022-12-29T19:35:48.495Z,72.85
2022-12-29T19:40:53.028Z,55.50
2022-12-29T19:51:23.389Z,59.97
2022-12-29T19:56:36.212Z,36.80
2022-12-29T20:01:59.727Z,39.08
2022-12-29T20:07:17.997Z,50.45
2022-12-29T20:12:29.440Z,33.53
2022-12-29T20:18:14.073Z,25.90
2022-12-29T20:23:19.142Z,25.25
2022-12-29T20:28:22.133Z,28.15
2022-12-29T20:33:26.278Z,32.23
2022-12-29T20:38:29.003Z,23.80
2022-12-29T20:43:31.536Z,30.80
2022-12-29T20:48:34.269Z,32.83
2022-12-29T20:53:38.018Z,36.63
2022-12-29T21:05:23.749Z,25.60
2022-12-29T21:16:49.926Z,28.60
2022-12-29T21:28:58.084Z,21.23
2022-12-29T21:35:05.242Z,26.90
2022-12-29T21:41:16.787Z,20.88
2022-12-29T21:46:36.850Z,22.80
2022-12-29T21:51:51.675Z,30.50
2022-12-29T21:56:58.839Z,46.78
2022-12-29T22:02:22.056Z,54.78
2022-12-29T22:07:43.377Z,78.28
2022-12-29T22:13:04.855Z,78.57
2022-12-29T22:18:27.589Z,79.25
2022-12-29T22:24:18.038Z,150.60
2022-12-29T22:34:58.355Z,53.17
2022-12-29T22:40:10.601Z,40.50
2022-12-29T22:45:14.174Z,44.88
2022-12-29T22:50:38.580Z,26.42
2022-12-29T22:55:45.437Z,64.78
2022-12-29T23:00:49.450Z,88.28
2022-12-29T23:06:14.962Z,100.57
2022-12-29T23:11:29.364Z,90.43
2022-12-29T23:24:37.205Z,59.33
2022-12-29T23:30:09.206Z,44.70
2022-12-29T23:35:42.372Z,52.20
2022-12-29T23:40:46.050Z,38.03
2022-12-29T23:52:21.691Z,29.33
2022-12-29T23:57:32.117Z,25.70
